sensor_id;sensor_type;location;lat;lon;timestamp;pressure;altitude;pressure_sealevel;temperature;humidity
9460;BME280;4768;42.664;23.240;2023-02-02T00:00:52;167886.94;;;3.66;100.00
9460;BME280;4768;42.664;23.240;2023-02-02T00:03:19;167871.03;;;3.60;100.00
9460;BME280;4768;42.664;23.240;2023-02-02T00:05:47;167855.13;;;3.54;100.00
9460;BME280;4768;42.664;23.240;2023-02-02T00:08:16;167849.81;;;3.52;100.00
9460;BME280;4768;42.664;23.240;2023-02-02T00:10:43;167840.50;;;3.49;100.00
9460;BME280;4768;42.664;23.240;2023-02-02T00:13:10;167843.19;;;3.50;100.00
9460;BME280;4768;42.664;23.240;2023-02-02T00:15:38;167827.28;;;3.44;100.00
9460;BME280;4768;42.664;23.240;2023-02-02T00:18:05;167832.56;;;3.46;100.00
9460;BME280;4768;42.664;23.240;2023-02-02T00:20:32;167831.25;;;3.45;100.00
9460;BME280;4768;42.664;23.240;2023-02-02T00:23:00;167825.97;;;3.43;100.00
9460;BME280;4768;42.664;23.240;2023-02-02T00:25:28;167823.28;;;3.42;100.00
9460;BME280;4768;42.664;23.240;2023-02-02T00:27:55;167815.34;;;3.39;100.00
9460;BME280;4768;42.664;23.240;2023-02-02T00:30:22;167807.38;;;3.36;100.00
9460;BME280;4768;42.664;23.240;2023-02-02T00:32:48;167803.41;;;3.35;100.00
9460;BME280;4768;42.664;23.240;2023-02-02T00:35:17;167803.41;;;3.35;100.00
9460;BME280;4768;42.664;23.240;2023-02-02T00:37:44;167814.03;;;3.39;100.00
9460;BME280;4768;42.664;23.240;2023-02-02T00:40:11;167823.28;;;3.42;100.00
9460;BME280;4768;42.664;23.240;2023-02-02T00:42:39;167814.03;;;3.39;100.00
9460;BME280;4768;42.664;23.240;2023-02-02T00:45:11;167796.75;;;3.33;100.00
9460;BME280;4768;42.664;23.240;2023-02-02T00:47:44;167802.09;;;3.35;100.00
9460;BME280;4768;42.664;23.240;2023-02-02T00:50:13;167800.75;;;3.34;100.00
9460;BME280;4768;42.664;23.240;2023-02-02T00:52:40;167782.22;;;3.27;100.00
9460;BME280;4768;42.664;23.240;2023-02-02T00:55:08;167772.91;;;3.24;100.00
9460;BME280;4768;42.664;23.240;2023-02-02T00:57:35;167764.94;;;3.21;100.00
9460;BME280;4768;42.664;23.240;2023-02-02T01:00:05;167763.66;;;3.20;100.00
9460;BME280;4768;42.664;23.240;2023-02-02T01:02:34;167735.81;;;3.10;100.00
9460;BME280;4768;42.664;23.240;2023-02-02T01:05:01;167719.91;;;3.04;100.00
9460;BME280;4768;42.664;23.240;2023-02-02T01:07:28;167718.53;;;3.03;100.00
9460;BME280;4768;42.664;23.240;2023-02-02T01:09:55;167739.78;;;3.11;100.00
9460;BME280;4768;42.664;23.240;2023-02-02T01:12:22;167719.91;;;3.04;100.00
9460;BME280;4768;42.664;23.240;2023-02-02T01:14:48;167717.25;;;3.03;100.00
9460;BME280;4768;42.664;23.240;2023-02-02T01:17:16;167709.28;;;3.00;100.00
9460;BME280;4768;42.664;23.240;2023-02-02T01:19:43;167705.31;;;2.98;100.00
9460;BME280;4768;42.664;23.240;2023-02-02T01:22:10;167677.47;;;2.88;100.00
9460;BME280;4768;42.664;23.240;2023-02-02T01:24:37;167645.66;;;2.76;100.00
9460;BME280;4768;42.664;23.240;2023-02-02T01:27:04;167625.78;;;2.69;100.00
9460;BME280;4768;42.664;23.240;2023-02-02T01:29:30;167628.47;;;2.70;100.00
9460;BME280;4768;42.664;23.240;2023-02-02T01:31:57;167600.63;;;2.59;100.00
9460;BME280;4768;42.664;23.240;2023-02-02T01:34:25;167621.81;;;2.67;100.00
9460;BME280;4768;42.664;23.240;2023-02-02T01:36:52;167624.50;;;2.68;100.00
9460;BME280;4768;42.664;23.240;2023-02-02T01:39:19;167629.78;;;2.70;100.00
9460;BME280;4768;42.664;23.240;2023-02-02T01:41:45;167631.09;;;2.71;100.00
9460;BME280;4768;42.664;23.240;2023-02-02T01:47:17;148487.59;;;2.56;100.00
9460;BME280;4768;42.664;23.240;2023-02-02T01:49:46;130502.44;;;2.39;100.00
9460;BME280;4768;42.664;23.240;2023-02-02T01:52:14;111964.91;;;2.49;100.00
9460;BME280;4768;42.664;23.240;2023-02-02T01:54:45;95581.19;;;2.43;100.00
9460;BME280;4768;42.664;23.240;2023-02-02T01:57:18;90736.53;;;2.56;100.00
9460;BME280;4768;42.664;23.240;2023-02-02T01:59:47;83466.63;;;2.66;100.00
9460;BME280;4768;42.664;23.240;2023-02-02T02:02:15;80320.78;;;2.42;100.00
9460;BME280;4768;42.664;23.240;2023-02-02T02:04:42;70639.38;;;2.36;100.00
9460;BME280;4768;42.664;23.240;2023-02-02T02:07:11;64441.47;;;2.42;100.00
9460;BME280;4768;42.664;23.240;2023-02-02T02:09:37;57212.41;;;2.38;100.00
9460;BME280;4768;42.664;23.240;2023-02-02T02:12:09;48631.91;;;2.38;100.00
9460;BME280;4768;42.664;23.240;2023-02-02T02:14:37;40417.19;;;2.41;100.00
9460;BME280;4768;42.664;23.240;2023-02-02T02:17:29;35285.97;;;2.29;100.00
9460;BME280;4768;42.664;23.240;2023-02-02T02:20:45;31882.28;;;2.50;100.00
9460;BME280;4768;42.664;23.240;2023-02-02T02:27:33;27108.31;;;2.46;100.00
9460;BME280;4768;42.664;23.240;2023-02-02T02:33:09;25746.00;;;2.46;100.00
9460;BME280;4768;42.664;23.240;2023-02-02T02:35:47;29154.84;;;2.52;100.00
9460;BME280;4768;42.664;23.240;2023-02-02T02:38:24;28809.25;;;2.38;100.00
9460;BME280;4768;42.664;23.240;2023-02-02T02:40:54;28809.56;;;2.39;100.00
9460;BME280;4768;42.664;23.240;2023-02-02T02:43:26;33588.69;;;2.51;100.00
9460;BME280;4768;42.664;23.240;2023-02-02T02:45:53;36661.13;;;2.49;100.00
9460;BME280;4768;42.664;23.240;2023-02-02T02:48:21;40422.75;;;2.52;100.00
9460;BME280;4768;42.664;23.240;2023-02-02T02:50:48;39049.34;;;2.41;100.00
9460;BME280;4768;42.664;23.240;2023-02-02T02:53:18;36659.00;;;2.44;100.00
9460;BME280;4768;42.664;23.240;2023-02-02T02:55:48;38025.72;;;2.44;100.00
9460;BME280;4768;42.664;23.240;2023-02-02T02:58:25;39050.84;;;2.44;100.00
9460;BME280;4768;42.664;23.240;2023-02-02T03:01:06;42130.56;;;2.47;100.00
9460;BME280;4768;42.664;23.240;2023-02-02T03:03:56;39385.81;;;2.31;100.00
9460;BME280;4768;42.664;23.240;2023-02-02T03:06:28;38017.13;;;2.27;100.00
9460;BME280;4768;42.664;23.240;2023-02-02T03:09:00;36307.50;;;2.23;100.00
9460;BME280;4768;42.664;23.240;2023-02-02T03:11:28;36306.78;;;2.22;100.00
9460;BME280;4768;42.664;23.240;2023-02-02T03:13:55;33916.06;;;2.18;100.00
9460;BME280;4768;42.664;23.240;2023-02-02T03:16:23;30500.69;;;2.04;100.00
9460;BME280;4768;42.664;23.240;2023-02-02T03:18:51;26072.66;;;2.00;100.00
9460;BME280;4768;42.664;23.240;2023-02-02T03:21:20;23692.09;;;2.02;100.00
9460;BME280;4768;42.664;23.240;2023-02-02T03:23:46;22331.16;;;1.97;100.00
9460;BME280;4768;42.664;23.240;2023-02-02T03:26:13;20973.16;;;2.03;100.00
9460;BME280;4768;42.664;23.240;2023-02-02T03:28:40;22675.47;;;2.16;100.00
9460;BME280;4768;42.664;23.240;2023-02-02T03:31:07;25736.19;;;2.13;100.00
9460;BME280;4768;42.664;23.240;2023-02-02T03:33:35;25735.00;;;2.09;100.00
9460;BME280;4768;42.664;23.240;2023-02-02T03:36:04;26417.47;;;2.15;100.00
9460;BME280;4768;42.664;23.240;2023-02-02T03:38:31;29142.09;;;2.16;100.00
9460;BME280;4768;42.664;23.240;2023-02-02T03:40:58;29820.84;;;2.08;100.00
9460;BME280;4768;42.664;23.240;2023-02-02T03:43:25;28119.88;;;2.15;100.00
9460;BME280;4768;42.664;23.240;2023-02-02T03:45:55;35633.66;;;2.43;100.00
9460;BME280;4768;42.664;23.240;2023-02-02T03:48:23;42812.44;;;2.42;100.00
9460;BME280;4768;42.664;23.240;2023-02-02T03:50:49;45204.28;;;2.35;100.00
9460;BME280;4768;42.664;23.240;2023-02-02T03:53:17;45552.22;;;2.44;100.00
9460;BME280;4768;42.664;23.240;2023-02-02T03:55:44;48634.88;;;2.42;100.00
9460;BME280;4768;42.664;23.240;2023-02-02T03:58:11;44858.53;;;2.30;100.00
9460;BME280;4768;42.664;23.240;2023-02-02T04:00:38;45902.19;;;2.56;100.00
9460;BME280;4768;42.664;23.240;2023-02-02T04:03:04;48982.75;;;2.49;100.00
9460;BME280;4768;42.664;23.240;2023-02-02T04:05:31;52068.69;;;2.47;100.00
9460;BME280;4768;42.664;23.240;2023-02-02T04:07:58;45887.94;;;2.33;100.00
9460;BME280;4768;42.664;23.240;2023-02-02T04:10:26;43153.22;;;2.40;100.00
9460;BME280;4768;42.664;23.240;2023-02-02T04:12:53;43496.06;;;2.41;100.00
9460;BME280;4768;42.664;23.240;2023-02-02T04:15:19;48642.88;;;2.54;100.00
9460;BME280;4768;42.664;23.240;2023-02-02T04:17:46;48290.44;;;2.39;100.00
9460;BME280;4768;42.664;23.240;2023-02-02T04:20:13;43830.47;;;2.28;100.00
9460;BME280;4768;42.664;23.240;2023-02-02T04:22:39;43153.22;;;2.40;100.00
9460;BME280;4768;42.664;23.240;2023-02-02T04:25:07;46580.53;;;2.45;100.00
9460;BME280;4768;42.664;23.240;2023-02-02T04:27:35;52412.63;;;2.48;100.00
9460;BME280;4768;42.664;23.240;2023-02-02T04:30:02;56527.13;;;2.40;100.00
9460;BME280;4768;42.664;23.240;2023-02-02T04:32:30;57899.78;;;2.38;100.00
9460;BME280;4768;42.664;23.240;2023-02-02T04:34:56;60992.97;;;2.36;100.00
9460;BME280;4768;42.664;23.240;2023-02-02T04:37:23;69266.66;;;2.42;100.00
9460;BME280;4768;42.664;23.240;2023-02-02T04:39:50;76173.91;;;2.44;100.00
9460;BME280;4768;42.664;23.240;2023-02-02T04:42:18;92816.50;;;2.54;100.00
9460;BME280;4768;42.664;23.240;2023-02-02T04:44:46;98357.50;;;2.40;100.00
9460;BME280;4768;42.664;23.240;2023-02-02T04:47:12;86877.31;;;2.24;100.00
9460;BME280;4768;42.664;23.240;2023-02-02T04:49:39;86195.78;;;2.33;100.00
9460;BME280;4768;42.664;23.240;2023-02-02T04:52:06;89655.66;;;2.27;100.00
9460;BME280;4768;42.664;23.240;2023-02-02T04:54:33;93479.63;;;2.32;100.00
9460;BME280;4768;42.664;23.240;2023-02-02T04:56:59;103586.47;;;2.45;100.00
9460;BME280;4768;42.664;23.240;2023-02-02T04:59:27;114761.56;;;2.50;100.00
9460;BME280;4768;42.664;23.240;2023-02-02T05:01:57;124210.97;;;2.50;100.00
9460;BME280;4768;42.664;23.240;2023-02-02T05:04:24;118932.56;;;2.37;100.00
9460;BME280;4768;42.664;23.240;2023-02-02T05:06:51;112625.47;;;2.28;100.00
9460;BME280;4768;42.664;23.240;2023-02-02T05:09:18;103200.50;;;2.21;100.00
9460;BME280;4768;42.664;23.240;2023-02-02T05:11:45;97972.72;;;2.15;100.00
9460;BME280;4768;42.664;23.240;2023-02-02T05:14:11;95539.41;;;2.15;100.00
9460;BME280;4768;42.664;23.240;2023-02-02T05:16:41;92063.16;;;2.12;100.00
9460;BME280;4768;42.664;23.240;2023-02-02T05:19:11;94847.59;;;2.17;100.00
9460;BME280;4768;42.664;23.240;2023-02-02T05:21:41;110199.00;;;2.38;100.00
9460;BME280;4768;42.664;23.240;2023-02-02T05:24:08;105627.41;;;2.14;100.00
9460;BME280;4768;42.664;23.240;2023-02-02T05:26:35;99353.72;;;2.09;100.00
9460;BME280;4768;42.664;23.240;2023-02-02T05:29:02;100394.81;;;2.07;100.00
9460;BME280;4768;42.664;23.240;2023-02-02T05:31:31;102490.97;;;2.13;100.00
9460;BME280;4768;42.664;23.240;2023-02-02T05:33:58;120325.72;;;2.33;100.00
9460;BME280;4768;42.664;23.240;2023-02-02T05:36:26;149893.59;;;2.53;100.00
9460;BME280;4768;42.664;23.240;2023-02-02T05:38:53;167566.19;;;2.46;100.00
9460;BME280;4768;42.664;23.240;2023-02-02T05:41:19;157593.69;;;2.24;100.00
9460;BME280;4768;42.664;23.240;2023-02-02T05:43:46;147715.94;;;2.28;100.00
9460;BME280;4768;42.664;23.240;2023-02-02T05:46:13;141695.06;;;2.14;100.00
9460;BME280;4768;42.664;23.240;2023-02-02T05:48:39;136403.50;;;2.06;100.00
9460;BME280;4768;42.664;23.240;2023-02-02T05:51:10;150898.25;;;2.31;100.00
9460;BME280;4768;42.664;23.240;2023-02-02T05:53:39;167554.25;;;2.42;100.00
9460;BME280;4768;42.664;23.240;2023-02-02T05:56:06;167628.47;;;2.70;100.00
9460;BME280;4768;42.664;23.240;2023-02-02T05:58:33;167656.28;;;2.80;100.00
9460;BME280;4768;42.664;23.240;2023-02-02T06:00:59;167702.63;;;2.97;100.00
9460;BME280;4768;42.664;23.240;2023-02-02T06:03:26;167644.38;;;2.76;100.00
9460;BME280;4768;42.664;23.240;2023-02-02T06:05:53;167685.44;;;2.91;100.00
9460;BME280;4768;42.664;23.240;2023-02-02T06:08:20;167693.38;;;2.94;100.00
9460;BME280;4768;42.664;23.240;2023-02-02T06:10:48;167652.31;;;2.79;100.00
9460;BME280;4768;42.664;23.240;2023-02-02T06:13:14;167631.09;;;2.71;100.00
9460;BME280;4768;42.664;23.240;2023-02-02T06:15:41;167653.63;;;2.79;100.00
9460;BME280;4768;42.664;23.240;2023-02-02T06:18:08;167704.00;;;2.98;100.00
9460;BME280;4768;42.664;23.240;2023-02-02T06:20:35;167721.22;;;3.04;100.00
9460;BME280;4768;42.664;23.240;2023-02-02T06:23:02;167719.91;;;3.04;100.00
9460;BME280;4768;42.664;23.240;2023-02-02T06:25:30;167723.88;;;3.05;100.00
9460;BME280;4768;42.664;23.240;2023-02-02T06:27:59;167767.63;;;3.22;100.00
9460;BME280;4768;42.664;23.240;2023-02-02T06:30:26;167733.13;;;3.09;100.00
9460;BME280;4768;42.664;23.240;2023-02-02T06:32:53;167719.91;;;3.04;100.00
9460;BME280;4768;42.664;23.240;2023-02-02T06:35:20;167715.94;;;3.02;100.00
9460;BME280;4768;42.664;23.240;2023-02-02T06:37:47;167774.25;;;3.24;100.00
9460;BME280;4768;42.664;23.240;2023-02-02T06:40:13;167798.13;;;3.33;100.00
9460;BME280;4768;42.664;23.240;2023-02-02T06:42:40;167790.19;;;3.30;100.00
9460;BME280;4768;42.664;23.240;2023-02-02T06:45:09;167807.38;;;3.36;100.00
9460;BME280;4768;42.664;23.240;2023-02-02T06:47:36;167828.59;;;3.44;100.00
9460;BME280;4768;42.664;23.240;2023-02-02T06:50:03;167806.09;;;3.36;100.00
9460;BME280;4768;42.664;23.240;2023-02-02T06:52:30;167794.16;;;3.32;100.00
9460;BME280;4768;42.664;23.240;2023-02-02T06:54:57;167795.47;;;3.32;100.00
9460;BME280;4768;42.664;23.240;2023-02-02T06:57:24;167806.09;;;3.36;100.00
9460;BME280;4768;42.664;23.240;2023-02-02T06:59:50;167818.00;;;3.40;100.00
9460;BME280;4768;42.664;23.240;2023-02-02T07:02:18;167825.97;;;3.43;100.00
9460;BME280;4768;42.664;23.240;2023-02-02T07:04:47;167864.38;;;3.58;100.00
9460;BME280;4768;42.664;23.240;2023-02-02T07:07:14;167882.97;;;3.65;100.00
9460;BME280;4768;42.664;23.240;2023-02-02T07:09:41;167889.59;;;3.67;100.00
9460;BME280;4768;42.664;23.240;2023-02-02T07:12:07;167892.22;;;3.68;100.00
9460;BME280;4768;42.664;23.240;2023-02-02T07:14:34;167902.84;;;3.72;100.00
9460;BME280;4768;42.664;23.240;2023-02-02T07:17:01;167918.75;;;3.78;100.00
9460;BME280;4768;42.664;23.240;2023-02-02T07:19:29;167933.38;;;3.83;100.00
9460;BME280;4768;42.664;23.240;2023-02-02T07:21:55;167942.63;;;3.87;100.00
9460;BME280;4768;42.664;23.240;2023-02-02T07:24:22;167933.38;;;3.83;100.00
9460;BME280;4768;42.664;23.240;2023-02-02T07:26:49;167921.44;;;3.79;100.00
9460;BME280;4768;42.664;23.240;2023-02-02T07:29:16;167933.38;;;3.83;100.00
9460;BME280;4768;42.664;23.240;2023-02-02T07:31:42;167971.84;;;3.98;100.00
9460;BME280;4768;42.664;23.240;2023-02-02T07:34:09;168054.03;;;4.29;100.00
9460;BME280;4768;42.664;23.240;2023-02-02T07:36:37;168076.63;;;4.37;100.00
9460;BME280;4768;42.664;23.240;2023-02-02T07:39:04;168080.59;;;4.38;100.00
9460;BME280;4768;42.664;23.240;2023-02-02T07:41:34;168148.25;;;4.64;100.00
9460;BME280;4768;42.664;23.240;2023-02-02T07:44:02;168246.50;;;5.00;100.00
9460;BME280;4768;42.664;23.240;2023-02-02T07:46:29;168334.09;;;5.33;100.00
9460;BME280;4768;42.664;23.240;2023-02-02T07:48:56;168441.69;;;5.73;100.00
9460;BME280;4768;42.664;23.240;2023-02-02T07:51:24;168460.31;;;5.80;100.00
9460;BME280;4768;42.664;23.240;2023-02-02T07:53:53;168482.91;;;5.88;100.00
9460;BME280;4768;42.664;23.240;2023-02-02T07:56:24;168420.41;;;5.65;100.00
9460;BME280;4768;42.664;23.240;2023-02-02T07:58:51;168449.72;;;5.76;100.00
9460;BME280;4768;42.664;23.240;2023-02-02T08:01:18;168376.59;;;5.49;100.00
9460;BME280;4768;42.664;23.240;2023-02-02T08:03:47;168358.00;;;5.42;100.00
9460;BME280;4768;42.664;23.240;2023-02-02T08:06:16;168424.41;;;5.67;100.00
9460;BME280;4768;42.664;23.240;2023-02-02T08:08:44;168476.25;;;5.86;100.00
9460;BME280;4768;42.664;23.240;2023-02-02T08:11:13;168412.44;;;5.62;100.00
9460;BME280;4768;42.664;23.240;2023-02-02T08:13:41;168361.97;;;5.43;100.00
9460;BME280;4768;42.664;23.240;2023-02-02T08:16:09;168436.34;;;5.71;100.00
9460;BME280;4768;42.664;23.240;2023-02-02T08:18:36;168367.31;;;5.45;100.00
9460;BME280;4768;42.664;23.240;2023-02-02T08:21:04;168322.16;;;5.28;100.00
9460;BME280;4768;42.664;23.240;2023-02-02T08:23:32;168266.41;;;5.08;100.00
9460;BME280;4768;42.664;23.240;2023-02-02T08:26:05;168211.97;;;4.87;100.00
9460;BME280;4768;42.664;23.240;2023-02-02T08:28:34;168162.88;;;4.69;100.00
9460;BME280;4768;42.664;23.240;2023-02-02T08:31:07;168192.06;;;4.80;100.00
9460;BME280;4768;42.664;23.240;2023-02-02T08:33:34;168190.75;;;4.79;100.00
9460;BME280;4768;42.664;23.240;2023-02-02T08:36:01;168253.13;;;5.03;100.00
9460;BME280;4768;42.664;23.240;2023-02-02T08:38:28;168263.78;;;5.07;100.00
9460;BME280;4768;42.664;23.240;2023-02-02T08:40:55;168279.69;;;5.13;100.00
9460;BME280;4768;42.664;23.240;2023-02-02T08:43:29;168343.44;;;5.36;100.00
9460;BME280;4768;42.664;23.240;2023-02-02T08:45:57;168324.81;;;5.29;100.00
9460;BME280;4768;42.664;23.240;2023-02-02T08:48:23;168323.50;;;5.29;100.00
9460;BME280;4768;42.664;23.240;2023-02-02T08:50:51;168331.47;;;5.32;100.00
9460;BME280;4768;42.664;23.240;2023-02-02T08:53:19;168275.72;;;5.11;100.00
9460;BME280;4768;42.664;23.240;2023-02-02T08:55:46;168348.72;;;5.38;100.00
9460;BME280;4768;42.664;23.240;2023-02-02T08:58:12;168391.22;;;5.54;100.00
9460;BME280;4768;42.664;23.240;2023-02-02T09:00:39;168371.31;;;5.47;100.00
9460;BME280;4768;42.664;23.240;2023-02-02T09:03:07;168350.03;;;5.39;100.00
9460;BME280;4768;42.664;23.240;2023-02-02T09:05:34;168404.47;;;5.59;100.00
9460;BME280;4768;42.664;23.240;2023-02-02T09:08:03;168428.38;;;5.68;100.00
9460;BME280;4768;42.664;23.240;2023-02-02T09:10:30;168441.69;;;5.73;100.00
9460;BME280;4768;42.664;23.240;2023-02-02T09:12:56;168514.78;;;6.00;100.00
9460;BME280;4768;42.664;23.240;2023-02-02T09:15:23;168481.59;;;5.88;100.00
9460;BME280;4768;42.664;23.240;2023-02-02T09:17:51;168468.28;;;5.83;100.00
9460;BME280;4768;42.664;23.240;2023-02-02T09:20:19;168464.28;;;5.81;100.00
9460;BME280;4768;42.664;23.240;2023-02-02T09:22:46;168528.03;;;6.05;100.00
9460;BME280;4768;42.664;23.240;2023-02-02T09:25:13;168546.66;;;6.12;100.00
9460;BME280;4768;42.664;23.240;2023-02-02T09:27:40;168534.69;;;6.08;100.00
9460;BME280;4768;42.664;23.240;2023-02-02T09:30:08;168570.56;;;6.21;100.00
9460;BME280;4768;42.664;23.240;2023-02-02T09:32:35;168561.28;;;6.18;100.00
9460;BME280;4768;42.664;23.240;2023-02-02T09:35:01;168563.91;;;6.19;100.00
9460;BME280;4768;42.664;23.240;2023-02-02T09:37:32;168598.47;;;6.31;100.00
9460;BME280;4768;42.664;23.240;2023-02-02T09:39:59;168642.31;;;6.48;100.00
9460;BME280;4768;42.664;23.240;2023-02-02T09:42:43;168692.81;;;6.67;100.00
9460;BME280;4768;42.664;23.240;2023-02-02T09:45:19;168646.28;;;6.49;100.00
9460;BME280;4768;42.664;23.240;2023-02-02T09:47:54;168716.75;;;6.75;100.00
9460;BME280;4768;42.664;23.240;2023-02-02T09:50:33;168740.66;;;6.84;100.00
9460;BME280;4768;42.664;23.240;2023-02-02T09:53:09;168679.56;;;6.62;100.00
9460;BME280;4768;42.664;23.240;2023-02-02T09:55:40;168737.97;;;6.83;100.00
9460;BME280;4768;42.664;23.240;2023-02-02T09:58:13;168793.88;;;7.04;100.00
9460;BME280;4768;42.664;23.240;2023-02-02T10:00:47;168771.25;;;6.96;100.00
9460;BME280;4768;42.664;23.240;2023-02-02T10:03:20;168731.38;;;6.81;100.00
9460;BME280;4768;42.664;23.240;2023-02-02T10:05:52;168839.03;;;7.21;100.00
9460;BME280;4768;42.664;23.240;2023-02-02T10:08:27;168753.94;;;6.89;100.00
9460;BME280;4768;42.664;23.240;2023-02-02T10:10:56;168718.06;;;6.76;100.00
9460;BME280;4768;42.664;23.240;2023-02-02T10:13:27;168739.34;;;6.84;100.00
9460;BME280;4768;42.664;23.240;2023-02-02T10:16:02;168752.63;;;6.89;100.00
9460;BME280;4768;42.664;23.240;2023-02-02T10:18:38;168704.78;;;6.71;100.00
9460;BME280;4768;42.664;23.240;2023-02-02T10:21:10;168793.88;;;7.04;100.00
9460;BME280;4768;42.664;23.240;2023-02-02T10:23:40;168768.56;;;6.95;100.00
9460;BME280;4768;42.664;23.240;2023-02-02T10:26:15;168827.06;;;7.17;100.00
9460;BME280;4768;42.664;23.240;2023-02-02T10:29:02;168921.50;;;7.52;100.00
9460;BME280;4768;42.664;23.240;2023-02-02T10:31:41;168936.09;;;7.57;100.00
9460;BME280;4768;42.664;23.240;2023-02-02T10:34:15;168851.00;;;7.25;100.00
9460;BME280;4768;42.664;23.240;2023-02-02T10:37:11;168829.75;;;7.18;100.00
9460;BME280;4768;42.664;23.240;2023-02-02T10:39:50;168777.91;;;6.98;100.00
9460;BME280;4768;42.664;23.240;2023-02-02T10:42:31;168755.28;;;6.90;100.00
9460;BME280;4768;42.664;23.240;2023-02-02T10:45:02;168775.25;;;6.97;100.00
9460;BME280;4768;42.664;23.240;2023-02-02T10:47:35;168731.38;;;6.81;100.00
9460;BME280;4768;42.664;23.240;2023-02-02T10:50:15;168731.38;;;6.81;100.00
9460;BME280;4768;42.664;23.240;2023-02-02T10:52:45;168741.97;;;6.85;100.00
9460;BME280;4768;42.664;23.240;2023-02-02T10:55:20;168747.31;;;6.87;100.00
9460;BME280;4768;42.664;23.240;2023-02-02T10:57:57;168878.91;;;7.36;100.00
9460;BME280;4768;42.664;23.240;2023-02-02T11:00:33;168941.44;;;7.59;100.00
9460;BME280;4768;42.664;23.240;2023-02-02T11:03:03;168945.44;;;7.61;100.00
9460;BME280;4768;42.664;23.240;2023-02-02T11:05:34;168982.63;;;7.74;100.00
9460;BME280;4768;42.664;23.240;2023-02-02T11:08:21;168952.09;;;7.63;100.00
9460;BME280;4768;42.664;23.240;2023-02-02T11:10:54;168855.00;;;7.27;100.00
9460;BME280;4768;42.664;23.240;2023-02-02T11:13:30;168860.28;;;7.29;100.00
9460;BME280;4768;42.664;23.240;2023-02-02T11:16:17;168869.63;;;7.32;100.00
9460;BME280;4768;42.664;23.240;2023-02-02T11:18:44;168835.06;;;7.20;100.00
9460;BME280;4768;42.664;23.240;2023-02-02T11:21:20;168865.66;;;7.31;100.00
9460;BME280;4768;42.664;23.240;2023-02-02T11:23:52;168890.91;;;7.40;100.00
9460;BME280;4768;42.664;23.240;2023-02-02T11:26:21;168948.09;;;7.62;100.00
9460;BME280;4768;42.664;23.240;2023-02-02T11:28:49;168926.78;;;7.54;100.00
9460;BME280;4768;42.664;23.240;2023-02-02T11:31:31;168889.59;;;7.40;100.00
9460;BME280;4768;42.664;23.240;2023-02-02T11:34:23;168889.59;;;7.40;100.00
9460;BME280;4768;42.664;23.240;2023-02-02T11:36:58;168825.75;;;7.16;100.00
9460;BME280;4768;42.664;23.240;2023-02-02T11:39:25;168847.03;;;7.24;100.00
9460;BME280;4768;42.664;23.240;2023-02-02T11:42:00;168808.44;;;7.10;100.00
9460;BME280;4768;42.664;23.240;2023-02-02T11:44:28;168777.91;;;6.98;100.00
9460;BME280;4768;42.664;23.240;2023-02-02T11:46:57;168861.66;;;7.29;100.00
9460;BME280;4768;42.664;23.240;2023-02-02T11:49:24;168873.63;;;7.34;100.00
9460;BME280;4768;42.664;23.240;2023-02-02T11:51:57;168868.28;;;7.32;100.00
9460;BME280;4768;42.664;23.240;2023-02-02T11:54:27;168916.13;;;7.50;100.00
9460;BME280;4768;42.664;23.240;2023-02-02T11:56:57;168960.06;;;7.66;100.00
9460;BME280;4768;42.664;23.240;2023-02-02T11:59:35;169086.44;;;8.13;100.00
9460;BME280;4768;42.664;23.240;2023-02-02T12:02:22;168960.06;;;7.66;100.00
9460;BME280;4768;42.664;23.240;2023-02-02T12:04:51;168977.34;;;7.72;100.00
9460;BME280;4768;42.664;23.240;2023-02-02T12:07:23;169013.25;;;7.86;100.00
9460;BME280;4768;42.664;23.240;2023-02-02T12:09:51;169043.84;;;7.97;100.00
9460;BME280;4768;42.664;23.240;2023-02-02T12:12:29;169152.97;;;8.38;100.00
9460;BME280;4768;42.664;23.240;2023-02-02T12:15:09;169195.56;;;8.54;100.00
9460;BME280;4768;42.664;23.240;2023-02-02T12:17:41;169093.09;;;8.16;100.00
9460;BME280;4768;42.664;23.240;2023-02-02T12:20:31;169030.53;;;7.92;100.00
9460;BME280;4768;42.664;23.240;2023-02-02T12:23:28;169078.41;;;8.10;100.00
9460;BME280;4768;42.664;23.240;2023-02-02T12:26:16;169094.41;;;8.16;100.00
9460;BME280;4768;42.664;23.240;2023-02-02T12:29:00;169045.16;;;7.98;100.00
9460;BME280;4768;42.664;23.240;2023-02-02T12:31:39;168992.00;;;7.78;100.00
9460;BME280;4768;42.664;23.240;2023-02-02T12:34:13;168932.09;;;7.56;100.00
9460;BME280;4768;42.664;23.240;2023-02-02T12:36:49;168924.13;;;7.53;100.00
9460;BME280;4768;42.664;23.240;2023-02-02T12:39:29;168878.91;;;7.36;100.00
9460;BME280;4768;42.664;23.240;2023-02-02T12:42:16;168852.31;;;7.26;100.00
9460;BME280;4768;42.664;23.240;2023-02-02T12:44:55;168825.75;;;7.16;100.00
9460;BME280;4768;42.664;23.240;2023-02-02T12:47:41;168825.75;;;7.16;100.00
9460;BME280;4768;42.664;23.240;2023-02-02T12:50:23;168813.81;;;7.12;100.00
9460;BME280;4768;42.664;23.240;2023-02-02T12:53:11;168807.13;;;7.09;100.00
9460;BME280;4768;42.664;23.240;2023-02-02T12:55:47;168788.50;;;7.02;100.00
9460;BME280;4768;42.664;23.240;2023-02-02T12:58:26;168785.88;;;7.01;100.00
9460;BME280;4768;42.664;23.240;2023-02-02T13:01:15;168779.22;;;6.99;100.00
9460;BME280;4768;42.664;23.240;2023-02-02T13:03:56;168784.53;;;7.01;100.00
9460;BME280;4768;42.664;23.240;2023-02-02T13:06:43;168807.13;;;7.09;100.00
9460;BME280;4768;42.664;23.240;2023-02-02T13:09:20;168869.63;;;7.32;100.00
9460;BME280;4768;42.664;23.240;2023-02-02T13:11:53;168870.94;;;7.33;100.00
9460;BME280;4768;42.664;23.240;2023-02-02T13:14:25;168862.97;;;7.30;100.00
9460;BME280;4768;42.664;23.240;2023-02-02T13:16:58;168872.25;;;7.33;100.00
9460;BME280;4768;42.664;23.240;2023-02-02T13:19:33;168865.66;;;7.31;100.00
9460;BME280;4768;42.664;23.240;2023-02-02T13:22:03;168845.69;;;7.23;100.00
9460;BME280;4768;42.664;23.240;2023-02-02T13:24:34;168840.34;;;7.21;100.00
9460;BME280;4768;42.664;23.240;2023-02-02T13:27:04;168820.41;;;7.14;100.00
9460;BME280;4768;42.664;23.240;2023-02-02T13:29:36;168796.50;;;7.05;100.00